createdAt,value
2022-12-23T00:00:57.175Z,2.03
2022-12-23T00:03:25.237Z,1.20
2022-12-23T00:05:52.424Z,1.30
2022-12-23T00:08:19.852Z,1.25
2022-12-23T00:10:48.259Z,1.70
2022-12-23T00:13:34.165Z,2.42
2022-12-23T00:16:12.085Z,1.73
2022-12-23T00:18:40.220Z,2.00
2022-12-23T00:21:10.951Z,1.90
2022-12-23T00:23:39.942Z,1.67
2022-12-23T00:26:07.795Z,2.20
2022-12-23T00:28:34.631Z,1.92
2022-12-23T00:31:04.692Z,1.90
2022-12-23T00:33:36.531Z,1.50
2022-12-23T00:36:14.683Z,1.73
2022-12-23T00:39:00.044Z,1.73
2022-12-23T00:41:45.770Z,2.00
2022-12-23T00:44:12.704Z,1.73
2022-12-23T00:46:39.539Z,2.03
2022-12-23T00:49:24.788Z,2.03
2022-12-23T00:51:51.622Z,1.92
2022-12-23T00:54:18.771Z,2.30
2022-12-23T00:56:45.599Z,2.00
2022-12-23T00:59:12.342Z,1.40
2022-12-23T01:01:57.716Z,1.88
2022-12-23T01:04:43.507Z,2.72
2022-12-23T01:07:10.804Z,1.50
2022-12-23T01:09:37.507Z,1.23
2022-12-23T01:12:04.614Z,2.42
2022-12-23T01:14:31.571Z,1.80
2022-12-23T01:16:58.428Z,1.73
2022-12-23T01:19:25.217Z,2.65
2022-12-23T01:21:51.973Z,1.77
2022-12-23T01:24:18.846Z,2.50
2022-12-23T01:26:45.640Z,2.33
2022-12-23T01:29:12.454Z,1.92
2022-12-23T01:31:39.386Z,1.85
2022-12-23T01:34:06.238Z,2.35
2022-12-23T01:36:33.052Z,1.50
2022-12-23T01:38:59.797Z,2.17
2022-12-23T01:41:47.784Z,1.80
2022-12-23T01:45:11.843Z,1.42
2022-12-23T01:47:57.102Z,1.50
2022-12-23T01:50:28.321Z,2.15
2022-12-23T01:53:08.976Z,1.98
2022-12-23T01:55:49.032Z,2.95
2022-12-23T01:58:19.576Z,1.55
2022-12-23T02:01:05.285Z,1.95
2022-12-23T02:03:45.241Z,1.90
2022-12-23T02:06:39.276Z,1.70
2022-12-23T02:09:17.549Z,1.75
2022-12-23T02:12:15.729Z,2.05
2022-12-23T02:15:13.438Z,1.92
2022-12-23T02:17:43.036Z,2.22
2022-12-23T02:20:46.585Z,2.08
2022-12-23T02:23:31.590Z,1.98
2022-12-23T02:26:28.717Z,2.40
2022-12-23T02:29:16.863Z,1.50
2022-12-23T02:31:59.793Z,1.52
2022-12-23T02:34:32.916Z,2.25
2022-12-23T02:37:07.161Z,1.40
2022-12-23T02:39:57.490Z,1.60
2022-12-23T02:42:29.961Z,2.60
2022-12-23T02:45:07.121Z,1.70
2022-12-23T02:47:38.149Z,1.67
2022-12-23T02:52:34.865Z,1.50
2022-12-23T02:55:14.829Z,1.60
2022-12-23T02:57:45.920Z,1.52
2022-12-23T03:00:13.451Z,2.05
2022-12-23T03:02:41.739Z,2.55
2022-12-23T03:05:30.100Z,2.20
2022-12-23T03:07:59.699Z,1.80
2022-12-23T03:10:48.651Z,1.92
2022-12-23T03:13:34.608Z,1.92
2022-12-23T03:16:22.941Z,2.15
2022-12-23T03:18:57.189Z,1.98
2022-12-23T03:21:34.765Z,1.90
2022-12-23T03:24:24.925Z,1.52
2022-12-23T03:27:00.336Z,1.57
2022-12-23T03:29:35.550Z,1.38
2022-12-23T03:32:03.149Z,1.30
2022-12-23T03:34:34.265Z,1.48
2022-12-23T03:37:04.771Z,1.80
2022-12-23T03:39:36.943Z,1.27
2022-12-23T03:42:13.632Z,1.48
2022-12-23T03:45:03.750Z,1.45
2022-12-23T03:47:33.700Z,1.48
2022-12-23T03:50:07.265Z,2.53
2022-12-23T03:52:39.616Z,1.83
2022-12-23T03:55:08.735Z,1.67
2022-12-23T03:57:40.783Z,1.20
2022-12-23T04:00:08.323Z,1.30
2022-12-23T04:02:50.521Z,1.40
2022-12-23T04:05:30.237Z,1.23
2022-12-23T04:08:32.695Z,0.70
2022-12-23T04:10:59.763Z,1.48
2022-12-23T04:13:27.717Z,1.02
2022-12-23T04:15:54.835Z,1.50
2022-12-23T04:18:24.026Z,1.67
2022-12-23T04:20:50.873Z,1.70
2022-12-23T04:23:17.765Z,1.30
2022-12-23T04:25:44.684Z,1.40
2022-12-23T04:28:11.398Z,2.15
2022-12-23T04:30:38.263Z,2.10
2022-12-23T04:33:04.982Z,1.65
2022-12-23T04:35:31.885Z,1.58
2022-12-23T04:37:58.859Z,2.35
2022-12-23T04:40:25.693Z,2.25
2022-12-23T04:42:52.593Z,1.60
2022-12-23T04:45:19.527Z,1.65
2022-12-23T04:47:46.316Z,1.52
2022-12-23T04:50:16.964Z,2.03
2022-12-23T04:52:44.490Z,1.77
2022-12-23T04:55:11.764Z,1.65
2022-12-23T04:57:41.011Z,2.13
2022-12-23T05:00:08.528Z,1.60
2022-12-23T05:02:35.405Z,1.85
2022-12-23T05:05:02.244Z,1.52
2022-12-23T05:07:29.033Z,1.20
2022-12-23T05:09:57.581Z,1.30
2022-12-23T05:12:24.324Z,1.52
2022-12-23T05:14:51.088Z,1.50
2022-12-23T05:17:17.790Z,1.58
2022-12-23T05:19:44.679Z,1.42
2022-12-23T05:22:11.518Z,1.40
2022-12-23T05:24:38.275Z,1.27
2022-12-23T05:27:05.136Z,1.50
2022-12-23T05:29:32.056Z,1.98
2022-12-23T05:31:58.962Z,1.63
2022-12-23T05:34:25.968Z,0.90
2022-12-23T05:36:52.787Z,1.00
2022-12-23T05:39:19.640Z,1.00
2022-12-23T05:41:46.414Z,2.08
2022-12-23T05:44:13.206Z,1.17
2022-12-23T05:46:40.074Z,1.40
2022-12-23T05:49:06.952Z,1.75
2022-12-23T05:51:33.762Z,1.30
2022-12-23T05:54:00.621Z,1.55
2022-12-23T05:56:27.484Z,1.05
2022-12-23T05:58:54.423Z,0.95
2022-12-23T06:01:21.116Z,1.48
2022-12-23T06:03:48.054Z,1.83
2022-12-23T06:06:15.156Z,1.55
2022-12-23T06:08:41.994Z,1.73
2022-12-23T06:11:09.026Z,1.25
2022-12-23T06:13:35.847Z,1.42
2022-12-23T06:16:02.926Z,1.60
2022-12-23T06:18:31.613Z,2.40
2022-12-23T06:20:58.425Z,1.30
2022-12-23T06:23:25.264Z,1.38
2022-12-23T06:25:59.021Z,1.60
2022-12-23T06:28:25.941Z,1.10
2022-12-23T06:30:54.137Z,1.60
2022-12-23T06:33:20.937Z,1.52
2022-12-23T06:35:47.805Z,1.60
2022-12-23T06:38:14.589Z,0.98
2022-12-23T06:40:41.844Z,1.70
2022-12-23T06:43:10.668Z,1.02
2022-12-23T06:45:37.428Z,1.63
2022-12-23T06:48:04.630Z,0.90
2022-12-23T06:50:31.365Z,1.20
2022-12-23T06:52:58.137Z,1.38
2022-12-23T06:55:24.964Z,1.40
2022-12-23T06:57:51.751Z,1.38
2022-12-23T07:00:18.632Z,1.45
2022-12-23T07:02:45.584Z,2.35
2022-12-23T07:05:12.521Z,1.27
2022-12-23T07:07:39.434Z,1.33
2022-12-23T07:10:07.014Z,1.20
2022-12-23T07:12:34.161Z,1.05
2022-12-23T07:15:00.917Z,1.30
2022-12-23T07:17:28.459Z,1.73
2022-12-23T07:19:55.233Z,1.52
2022-12-23T07:22:22.080Z,1.38
2022-12-23T07:24:48.933Z,1.10
2022-12-23T07:27:16.235Z,1.08
2022-12-23T07:29:42.953Z,0.85
2022-12-23T07:32:09.873Z,1.23
2022-12-23T07:34:36.774Z,0.93
2022-12-23T07:37:03.675Z,1.15
2022-12-23T07:39:30.610Z,1.05
2022-12-23T07:42:24.936Z,1.40
2022-12-23T07:44:44.475Z,1.23
2022-12-23T07:47:11.228Z,1.30
2022-12-23T07:49:38.096Z,1.10
2022-12-23T07:52:04.981Z,1.20
2022-12-23T07:54:31.880Z,1.40
2022-12-23T07:56:58.793Z,0.85
2022-12-23T07:59:27.164Z,1.20
2022-12-23T08:01:54.141Z,1.00
2022-12-23T08:04:21.174Z,1.05
2022-12-23T08:06:48.059Z,0.75
2022-12-23T08:09:14.938Z,0.82
2022-12-23T08:11:41.682Z,0.68
2022-12-23T08:14:08.538Z,1.20
2022-12-23T08:16:41.384Z,0.93
2022-12-23T08:19:10.602Z,1.10
2022-12-23T08:21:37.432Z,0.80
2022-12-23T08:24:04.376Z,0.75
2022-12-23T08:26:33.791Z,0.98
2022-12-23T08:29:01.050Z,1.05
2022-12-23T08:31:31.990Z,1.42
2022-12-23T08:34:00.148Z,1.17
2022-12-23T08:36:29.951Z,1.17
2022-12-23T08:38:58.561Z,1.65
2022-12-23T08:41:27.996Z,1.92
2022-12-23T08:43:55.233Z,1.83
2022-12-23T08:46:22.446Z,1.73
2022-12-23T08:48:50.182Z,1.10
2022-12-23T08:51:18.818Z,0.95
2022-12-23T08:53:45.996Z,1.40
2022-12-23T08:56:15.313Z,0.80
2022-12-23T08:58:46.419Z,1.00
2022-12-23T09:01:15.866Z,1.25
2022-12-23T09:03:43.820Z,1.75
2022-12-23T09:06:16.507Z,1.60
2022-12-23T09:08:44.054Z,2.30
2022-12-23T09:11:12.126Z,1.33
2022-12-23T09:13:39.115Z,1.17
2022-12-23T09:16:06.613Z,1.48
2022-12-23T09:18:34.454Z,1.20
2022-12-23T09:21:03.244Z,1.00
2022-12-23T09:23:30.236Z,1.30
2022-12-23T09:25:57.473Z,1.88
2022-12-23T09:28:25.318Z,2.13
2022-12-23T09:30:52.823Z,1.85
2022-12-23T09:33:20.015Z,1.10
2022-12-23T09:35:46.936Z,1.48
2022-12-23T09:38:13.941Z,1.00
2022-12-23T09:40:42.325Z,1.83
2022-12-23T09:43:33.945Z,1.50
2022-12-23T09:46:24.690Z,1.50
2022-12-23T09:49:09.287Z,2.08
2022-12-23T09:51:36.087Z,1.05
2022-12-23T09:54:17.108Z,1.08
2022-12-23T09:56:58.335Z,1.50
2022-12-23T09:59:35.854Z,1.40
2022-12-23T10:02:24.313Z,1.40
2022-12-23T10:05:05.827Z,1.50
2022-12-23T10:07:52.654Z,1.73
2022-12-23T10:10:42.745Z,1.27
2022-12-23T10:13:20.072Z,1.30
2022-12-23T10:15:48.689Z,1.48
2022-12-23T10:18:21.911Z,1.50
2022-12-23T10:21:14.711Z,1.15
2022-12-23T10:23:43.756Z,1.50
2022-12-23T10:26:32.375Z,1.13
2022-12-23T10:29:19.435Z,1.08
2022-12-23T10:32:11.522Z,1.73
2022-12-23T10:34:57.112Z,1.65
2022-12-23T10:37:38.882Z,1.25
2022-12-23T10:40:21.818Z,1.05
2022-12-23T10:43:03.990Z,1.58
2022-12-23T10:45:37.296Z,1.30
2022-12-23T10:48:26.230Z,0.90
2022-12-23T10:51:03.534Z,1.15
2022-12-23T10:53:42.268Z,1.00
2022-12-23T10:56:09.293Z,0.82
2022-12-23T10:58:40.697Z,1.10
2022-12-23T11:01:16.142Z,0.90
2022-12-23T11:03:51.748Z,1.13
2022-12-23T11:06:19.784Z,1.13
2022-12-23T11:08:47.127Z,1.48
2022-12-23T11:11:14.862Z,1.05
2022-12-23T11:13:44.310Z,1.05
2022-12-23T11:16:31.449Z,1.20
2022-12-23T11:19:04.216Z,0.95
2022-12-23T11:21:32.609Z,1.23
2022-12-23T11:24:20.051Z,1.80
2022-12-23T11:26:49.857Z,1.25
2022-12-23T11:29:25.695Z,0.88
2022-12-23T11:31:52.786Z,1.00
2022-12-23T11:34:22.188Z,1.30
2022-12-23T11:36:56.602Z,1.38
2022-12-23T11:39:33.927Z,1.05
2022-12-23T11:42:17.865Z,1.40
2022-12-23T11:44:47.781Z,0.93
2022-12-23T11:47:48.195Z,1.27
2022-12-23T11:50:36.632Z,1.20
2022-12-23T11:53:21.615Z,1.27
2022-12-23T11:56:09.878Z,1.10
2022-12-23T11:58:45.913Z,1.00
2022-12-23T12:01:18.764Z,1.70
2022-12-23T12:03:49.769Z,1.30
2022-12-23T12:06:17.206Z,1.55
2022-12-23T12:08:44.077Z,0.80
2022-12-23T12:11:17.797Z,0.68
2022-12-23T12:14:01.018Z,1.27
2022-12-23T12:16:30.674Z,1.50
2022-12-23T12:19:26.807Z,0.90
2022-12-23T12:21:57.550Z,1.10
2022-12-23T12:24:29.520Z,1.30
2022-12-23T12:27:01.419Z,1.38
2022-12-23T12:29:43.875Z,2.08
2022-12-23T12:32:49.719Z,1.20
2022-12-23T12:35:35.978Z,1.20
2022-12-23T12:38:13.909Z,1.15
2022-12-23T12:40:42.856Z,1.98
2022-12-23T12:43:31.777Z,1.45
2022-12-23T12:46:40.127Z,1.70
2022-12-23T12:49:24.957Z,1.05
2022-12-23T12:52:08.268Z,1.77
2022-12-23T12:55:17.986Z,1.30
2022-12-23T12:57:44.777Z,1.30
2022-12-23T13:00:23.103Z,0.93
2022-12-23T13:03:23.336Z,1.40
2022-12-23T13:06:00.610Z,1.50
2022-12-23T13:08:51.924Z,1.00
2022-12-23T13:11:45.476Z,1.20
2022-12-23T13:14:27.669Z,1.15
2022-12-23T13:17:12.822Z,1.08
2022-12-23T13:19:51.012Z,1.60
2022-12-23T13:22:28.037Z,1.88
2022-12-23T13:25:06.311Z,1.20
2022-12-23T13:27:43.866Z,1.73
2022-12-23T13:30:20.240Z,1.67
2022-12-23T13:32:55.996Z,1.30
2022-12-23T13:36:13.672Z,1.48
2022-12-23T13:38:49.277Z,1.35
2022-12-23T13:41:34.953Z,1.70
2022-12-23T13:44:06.462Z,1.80
2022-12-23T13:47:11.758Z,1.50
2022-12-23T13:49:41.740Z,1.85
2022-12-23T13:52:28.692Z,1.52
2022-12-23T13:55:32.731Z,1.23
2022-12-23T13:58:13.887Z,1.35
2022-12-23T14:00:40.786Z,1.50
2022-12-23T14:03:14.694Z,1.70
2022-12-23T14:05:50.705Z,1.60
2022-12-23T14:08:27.788Z,1.27
2022-12-23T14:11:02.002Z,1.40
2022-12-23T14:13:56.157Z,1.52
2022-12-23T14:16:56.523Z,3.25
2022-12-23T14:19:38.697Z,1.70
2022-12-23T14:22:41.644Z,1.25
2022-12-23T14:25:17.443Z,1.10
2022-12-23T14:27:44.281Z,1.15
2022-12-23T14:30:45.910Z,1.55
2022-12-23T14:33:18.787Z,1.33
2022-12-23T14:35:45.491Z,1.30
2022-12-23T14:38:15.260Z,1.63
2022-12-23T14:40:42.357Z,1.33
2022-12-23T14:43:55.704Z,1.27
2022-12-23T14:46:45.909Z,1.40
2022-12-23T14:49:40.613Z,1.73
2022-12-23T14:52:40.763Z,1.40
2022-12-23T14:55:31.600Z,1.20
2022-12-23T14:58:17.516Z,1.17
2022-12-23T15:00:53.172Z,1.45
2022-12-23T15:03:20.583Z,1.45
2022-12-23T15:05:47.774Z,1.73
2022-12-23T15:08:36.035Z,1.92
2022-12-23T15:11:03.477Z,1.50
2022-12-23T15:13:31.853Z,1.58
2022-12-23T15:16:01.817Z,2.30
2022-12-23T15:18:29.348Z,1.67
2022-12-23T15:21:05.101Z,1.25
2022-12-23T15:23:33.345Z,1.50
2022-12-23T15:26:00.606Z,1.42
2022-12-23T15:28:38.471Z,1.65
2022-12-23T15:31:06.239Z,1.50
2022-12-23T15:34:03.052Z,2.35
2022-12-23T15:36:30.885Z,8.48
2022-12-23T15:38:59.418Z,5.97
2022-12-23T15:41:26.378Z,3.88
2022-12-23T15:43:56.646Z,3.53
2022-12-23T15:46:29.871Z,3.67
2022-12-23T15:48:57.242Z,3.38
2022-12-23T15:51:57.814Z,4.43
2022-12-23T15:54:51.849Z,3.28
2022-12-23T15:57:20.985Z,4.30
2022-12-23T15:59:48.146Z,2.17
2022-12-23T16:02:58.910Z,4.90
2022-12-23T16:05:09.377Z,5.53
2022-12-23T16:07:40.795Z,6.25
2022-12-23T16:10:15.724Z,7.97
2022-12-23T16:12:43.882Z,4.18
2022-12-23T16:15:27.291Z,4.28
2022-12-23T16:18:14.319Z,4.65
2022-12-23T16:20:44.618Z,3.00
2022-12-23T16:23:12.459Z,2.67
2022-12-23T16:25:39.705Z,3.00
2022-12-23T16:28:09.180Z,2.53
2022-12-23T16:30:38.195Z,2.35
2022-12-23T16:33:37.808Z,2.95
2022-12-23T16:36:26.865Z,4.55
2022-12-23T16:39:19.629Z,2.65
2022-12-23T16:41:46.423Z,2.63
2022-12-23T16:44:13.292Z,1.92
2022-12-23T16:46:44.129Z,2.20
2022-12-23T16:49:15.933Z,2.40
2022-12-23T16:51:43.072Z,2.20
2022-12-23T16:54:15.636Z,1.65
2022-12-23T16:56:43.148Z,1.55
2022-12-23T16:59:10.292Z,1.45
2022-12-23T17:01:39.615Z,1.92
2022-12-23T17:04:07.345Z,1.95
2022-12-23T17:06:35.919Z,1.50
2022-12-23T17:09:04.413Z,1.60
2022-12-23T17:11:48.986Z,1.30
2022-12-23T17:14:25.440Z,2.47
2022-12-23T17:16:52.602Z,2.05
2022-12-23T17:19:28.817Z,4.15
2022-12-23T17:22:00.548Z,2.35
2022-12-23T17:26:54.898Z,2.75
2022-12-23T17:29:21.704Z,2.00
2022-12-23T17:31:49.025Z,2.20
2022-12-23T17:34:18.988Z,2.85
2022-12-23T17:36:49.792Z,3.15
2022-12-23T17:39:17.401Z,3.50
2022-12-23T17:41:44.258Z,4.03
2022-12-23T17:44:14.001Z,3.33
2022-12-23T17:46:40.790Z,3.72
2022-12-23T17:49:08.685Z,2.45
2022-12-23T17:51:35.573Z,4.03
2022-12-23T17:54:04.506Z,2.72
2022-12-23T17:56:31.490Z,2.25
2022-12-23T17:58:58.554Z,1.65
2022-12-23T18:01:26.495Z,4.13
2022-12-23T18:03:54.190Z,8.38
2022-12-23T18:06:22.459Z,3.58
2022-12-23T18:08:49.767Z,2.65
2022-12-23T18:11:38.835Z,2.22
2022-12-23T18:14:05.642Z,1.77
2022-12-23T18:16:32.468Z,2.17
2022-12-23T18:18:59.391Z,2.30
2022-12-23T18:21:28.075Z,2.28
2022-12-23T18:23:57.254Z,1.67
2022-12-23T18:26:24.990Z,2.28
2022-12-23T18:28:54.154Z,2.05
2022-12-23T18:31:24.139Z,2.08
2022-12-23T18:33:51.762Z,1.30
2022-12-23T18:36:24.949Z,2.10
2022-12-23T18:38:52.671Z,1.98
2022-12-23T18:41:20.516Z,1.10
2022-12-23T18:43:47.418Z,1.27
2022-12-23T18:46:14.320Z,1.83
2022-12-23T18:48:41.216Z,1.80
2022-12-23T18:51:12.501Z,5.80
2022-12-23T18:53:39.610Z,3.58
2022-12-23T18:56:06.581Z,3.25
2022-12-23T18:58:33.394Z,2.70
2022-12-23T19:01:00.208Z,1.60
2022-12-23T19:03:29.817Z,1.80
2022-12-23T19:05:58.226Z,1.60
2022-12-23T19:08:27.550Z,3.33
2022-12-23T19:10:55.285Z,2.40
2022-12-23T19:13:22.547Z,1.92
2022-12-23T19:15:49.485Z,1.95
2022-12-23T19:18:18.394Z,1.42
2022-12-23T19:20:45.982Z,1.90
2022-12-23T19:23:13.421Z,2.00
2022-12-23T19:25:42.048Z,2.00
2022-12-23T19:28:09.673Z,2.35
2022-12-23T19:30:37.059Z,1.42
2022-12-23T19:33:03.976Z,1.85
2022-12-23T19:35:30.759Z,1.50
2022-12-23T19:37:57.555Z,2.05
2022-12-23T19:40:24.347Z,1.92
2022-12-23T19:42:51.223Z,1.60
2022-12-23T19:45:18.067Z,1.70
2022-12-23T19:47:44.894Z,1.92
2022-12-23T19:50:11.991Z,1.70
2022-12-23T19:52:39.001Z,1.38
2022-12-23T19:55:06.452Z,1.60
2022-12-23T19:57:33.565Z,1.67
2022-12-23T20:00:01.904Z,1.20
2022-12-23T20:02:38.794Z,2.15
2022-12-23T20:05:06.077Z,2.10
2022-12-23T20:07:32.873Z,2.15
2022-12-23T20:09:59.681Z,2.17
2022-12-23T20:12:28.015Z,1.48
2022-12-23T20:14:54.885Z,2.53
2022-12-23T20:17:21.652Z,1.63
2022-12-23T20:19:48.500Z,1.42
2022-12-23T20:22:15.254Z,1.88
2022-12-23T20:24:42.039Z,1.83
2022-12-23T20:27:11.990Z,2.05
2022-12-23T20:29:39.477Z,1.85
2022-12-23T20:32:06.218Z,2.17
2022-12-23T20:34:38.624Z,1.60
2022-12-23T20:37:06.477Z,1.52
2022-12-23T20:39:33.348Z,1.95
2022-12-23T20:42:00.135Z,1.60
2022-12-23T20:44:36.053Z,2.00
2022-12-23T20:47:05.173Z,2.08
2022-12-23T20:49:32.055Z,1.83
2022-12-23T20:51:58.897Z,1.75
2022-12-23T20:54:32.209Z,2.75
2022-12-23T20:56:59.241Z,1.90
2022-12-23T20:59:26.036Z,1.70
2022-12-23T21:01:52.924Z,1.85
2022-12-23T21:04:20.597Z,1.48
2022-12-23T21:06:47.655Z,1.60
2022-12-23T21:09:15.422Z,1.23
2022-12-23T21:11:44.074Z,1.40
2022-12-23T21:14:11.702Z,1.17
2022-12-23T21:16:39.050Z,1.15
2022-12-23T21:19:07.680Z,2.00
2022-12-23T21:21:34.774Z,1.60
2022-12-23T21:24:04.581Z,1.17
2022-12-23T21:26:32.969Z,1.80
2022-12-23T21:29:00.623Z,1.45
2022-12-23T21:31:28.893Z,1.40
2022-12-23T21:33:55.907Z,1.50
2022-12-23T21:36:25.510Z,1.73
2022-12-23T21:38:52.484Z,1.75
2022-12-23T21:41:27.647Z,2.10
2022-12-23T21:43:56.200Z,2.20
2022-12-23T21:46:23.701Z,1.50
2022-12-23T21:48:51.087Z,1.98
2022-12-23T21:51:19.016Z,1.30
2022-12-23T21:53:46.926Z,1.38
2022-12-23T21:56:16.450Z,1.60
2022-12-23T21:58:43.685Z,2.78
2022-12-23T22:01:14.021Z,2.45
2022-12-23T22:03:41.455Z,1.48
2022-12-23T22:06:10.960Z,1.60
2022-12-23T22:08:39.071Z,1.40
2022-12-23T22:11:08.508Z,2.58
2022-12-23T22:13:36.190Z,1.92
2022-12-23T22:16:04.412Z,1.92
2022-12-23T22:18:31.803Z,2.00
2022-12-23T22:20:58.663Z,1.67
2022-12-23T22:23:25.461Z,1.92
2022-12-23T22:25:55.969Z,1.60
2022-12-23T22:28:22.871Z,1.95
2022-12-23T22:30:49.697Z,1.75
2022-12-23T22:33:16.555Z,1.52
2022-12-23T22:35:43.349Z,1.30
2022-12-23T22:38:10.396Z,1.40
2022-12-23T22:40:37.169Z,2.30
2022-12-23T22:43:04.034Z,1.65
2022-12-23T22:45:30.874Z,1.58
2022-12-23T22:47:57.743Z,1.80
2022-12-23T22:50:24.502Z,1.27
2022-12-23T22:52:51.557Z,1.83
2022-12-23T22:55:18.481Z,1.73
2022-12-23T22:57:45.289Z,1.60
2022-12-23T23:00:12.954Z,1.42
2022-12-23T23:02:39.804Z,1.98
2022-12-23T23:05:12.582Z,1.40
2022-12-23T23:07:40.013Z,1.27
2022-12-23T23:10:07.517Z,1.58
2022-12-23T23:12:34.300Z,1.40
2022-12-23T23:15:01.909Z,0.85
2022-12-23T23:17:29.076Z,1.05
2022-12-23T23:19:55.958Z,1.00
2022-12-23T23:22:24.033Z,0.95
2022-12-23T23:24:51.491Z,0.98
2022-12-23T23:27:18.810Z,1.10
2022-12-23T23:29:45.659Z,1.05
2022-12-23T23:32:12.574Z,1.02
2022-12-23T23:34:40.629Z,1.60
2022-12-23T23:37:07.715Z,1.20
2022-12-23T23:39:34.451Z,1.10
2022-12-23T23:42:01.262Z,1.52
2022-12-23T23:44:28.049Z,2.13
2022-12-23T23:46:54.882Z,1.35
2022-12-23T23:49:23.215Z,1.15
2022-12-23T23:51:50.550Z,1.73
2022-12-23T23:54:17.655Z,1.45
2022-12-23T23:56:44.462Z,1.67
2022-12-23T23:59:11.292Z,1.30
